createdAt,value
2022-11-28T00:01:35.835Z,97765.56
2022-11-28T00:04:05.230Z,97773.34
2022-11-28T00:06:37.008Z,97767.31
2022-11-28T00:09:04.552Z,97769.91
2022-11-28T00:11:32.741Z,97755.69
2022-11-28T00:14:01.808Z,97754.72
2022-11-28T00:16:28.765Z,97747.91
2022-11-28T00:18:56.033Z,97746.94
2022-11-28T00:21:24.337Z,97730.47
2022-11-28T00:23:53.158Z,97737.59
2022-11-28T00:26:36.141Z,97724.34
2022-11-28T00:29:05.342Z,97738.00
2022-11-28T00:31:37.554Z,97730.31
2022-11-28T00:34:06.041Z,97719.16
2022-11-28T00:36:33.651Z,97726.47
2022-11-28T00:39:00.445Z,97723.84
2022-11-28T00:41:30.421Z,97705.88
2022-11-28T00:43:58.325Z,97707.81
2022-11-28T00:46:25.606Z,97698.13
2022-11-28T00:48:53.173Z,97686.38
2022-11-28T00:51:27.044Z,97669.78
2022-11-28T00:53:56.653Z,97646.63
2022-11-28T00:56:26.886Z,97642.47
2022-11-28T00:58:54.320Z,97642.94
2022-11-28T01:01:24.628Z,97635.75
2022-11-28T01:03:53.557Z,97643.34
2022-11-28T01:06:29.757Z,97645.94
2022-11-28T01:08:59.113Z,97648.72
2022-11-28T01:11:27.197Z,97646.22
2022-11-28T01:13:56.303Z,97632.88
2022-11-28T01:16:23.698Z,97634.69
2022-11-28T01:18:51.557Z,97643.34
2022-11-28T01:21:19.962Z,97644.41
2022-11-28T01:23:47.171Z,97650.06
2022-11-28T01:26:25.196Z,97650.34
2022-11-28T01:28:53.094Z,97642.28
2022-11-28T01:31:23.493Z,97637.28
2022-11-28T01:33:52.107Z,97637.28
2022-11-28T01:36:20.427Z,97642.66
2022-11-28T01:38:48.958Z,97646.78
2022-11-28T01:41:20.553Z,97643.22
2022-11-28T01:44:02.888Z,97630.53
2022-11-28T01:46:30.498Z,97625.19
2022-11-28T01:49:29.984Z,97611.25
2022-11-28T01:52:13.215Z,97603.84
2022-11-28T01:54:44.372Z,97593.38
2022-11-28T01:57:17.077Z,97593.13
2022-11-28T02:00:11.419Z,97586.00
2022-11-28T02:03:06.880Z,97561.88
2022-11-28T02:05:33.901Z,97550.47
2022-11-28T02:08:01.305Z,97544.59
2022-11-28T02:10:52.292Z,97565.63
2022-11-28T02:13:33.677Z,97566.31
2022-11-28T02:16:12.727Z,97565.06
2022-11-28T02:18:59.187Z,97559.50
2022-11-28T02:21:32.123Z,97551.91
2022-11-28T02:24:10.301Z,97566.03
2022-11-28T02:26:57.040Z,97561.72
2022-11-28T02:29:40.161Z,97546.25
2022-11-28T02:32:56.983Z,97546.25
2022-11-28T02:35:34.932Z,97538.38
2022-11-28T02:38:25.961Z,97546.25
2022-11-28T02:41:19.480Z,97555.09
2022-11-28T02:44:14.276Z,97556.03
2022-11-28T02:47:00.124Z,97560.84
2022-11-28T02:49:29.970Z,97584.66
2022-11-28T02:52:06.924Z,97589.25
2022-11-28T02:54:34.464Z,97582.94
2022-11-28T02:57:03.192Z,97591.38
2022-11-28T02:59:44.466Z,97593.50
2022-11-28T03:02:15.964Z,97584.47
2022-11-28T03:05:01.019Z,97580.44
2022-11-28T03:07:58.505Z,97577.91
2022-11-28T03:10:37.709Z,97590.91
2022-11-28T03:13:15.002Z,97570.41
2022-11-28T03:16:01.762Z,97567.44
2022-11-28T03:18:40.294Z,97555.53
2022-11-28T03:21:23.839Z,97537.25
2022-11-28T03:24:03.165Z,97532.19
2022-11-28T03:26:43.850Z,97529.88
2022-11-28T03:29:25.935Z,97509.81
2022-11-28T03:31:58.162Z,97499.66
2022-11-28T03:34:31.750Z,97498.09
2022-11-28T03:37:03.659Z,97476.78
2022-11-28T03:39:37.174Z,97449.41
2022-11-28T03:42:24.766Z,97465.34
2022-11-28T03:45:18.394Z,97465.34
2022-11-28T03:47:52.545Z,97466.34
2022-11-28T03:50:25.943Z,97491.66
2022-11-28T03:53:34.924Z,97504.34
2022-11-28T03:56:17.990Z,97514.25
2022-11-28T03:58:51.716Z,97524.16
2022-11-28T04:01:27.401Z,97527.97
2022-11-28T04:04:05.481Z,97525.50
2022-11-28T04:06:53.086Z,97513.56
2022-11-28T04:09:45.345Z,97515.84
2022-11-28T04:12:37.742Z,97521.44
2022-11-28T04:15:12.012Z,97519.41
2022-11-28T04:17:46.048Z,97517.97
2022-11-28T04:20:30.180Z,97506.59
2022-11-28T04:23:09.520Z,97501.34
2022-11-28T04:25:40.309Z,97498.56
2022-11-28T04:28:13.497Z,97499.31
2022-11-28T04:30:43.848Z,97502.38
2022-11-28T04:33:13.402Z,97494.31
2022-11-28T04:35:46.783Z,97491.31
2022-11-28T04:38:14.387Z,97503.53
2022-11-28T04:41:14.190Z,97483.50
2022-11-28T04:43:49.073Z,97466.22
2022-11-28T04:46:21.827Z,97466.44
2022-11-28T04:48:48.687Z,97457.03
2022-11-28T04:51:15.406Z,97459.53
2022-11-28T04:53:58.647Z,97454.75
2022-11-28T04:56:33.871Z,97455.28
2022-11-28T04:59:01.123Z,97459.13
2022-11-28T05:01:31.453Z,97452.59
2022-11-28T05:03:58.498Z,97447.97
2022-11-28T05:06:28.442Z,97450.28
2022-11-28T05:08:55.806Z,97455.09
2022-11-28T05:11:22.914Z,97441.84
2022-11-28T05:13:49.761Z,97451.66
2022-11-28T05:16:16.909Z,97452.44
2022-11-28T05:18:44.208Z,97446.28
2022-11-28T05:21:11.628Z,97455.13
2022-11-28T05:23:40.304Z,97456.88
2022-11-28T05:26:08.395Z,97448.03
2022-11-28T05:28:35.471Z,97446.03
2022-11-28T05:31:03.013Z,97443.25
2022-11-28T05:33:31.250Z,97437.13
2022-11-28T05:36:13.247Z,97444.19
2022-11-28T05:38:41.504Z,97454.56
2022-11-28T05:41:09.183Z,97454.09
2022-11-28T05:43:36.436Z,97458.97
2022-11-28T05:46:06.202Z,97452.94
2022-11-28T05:48:33.168Z,97438.50
2022-11-28T05:51:00.375Z,97444.63
2022-11-28T05:53:27.205Z,97445.69
2022-11-28T05:55:54.034Z,97437.59
2022-11-28T05:58:20.873Z,97439.13
2022-11-28T06:00:47.657Z,97440.16
2022-11-28T06:03:14.872Z,97444.50
2022-11-28T06:05:43.839Z,97435.88
2022-11-28T06:08:14.377Z,97445.47
2022-11-28T06:10:41.667Z,97440.88
2022-11-28T06:13:09.019Z,97442.34
2022-11-28T06:15:38.303Z,97442.81
2022-11-28T06:18:06.326Z,97436.47
2022-11-28T06:20:35.588Z,97437.25
2022-11-28T06:23:02.366Z,97434.47
2022-11-28T06:25:29.493Z,97431.69
2022-11-28T06:27:56.325Z,97427.66
2022-11-28T06:30:23.128Z,97435.50
2022-11-28T06:32:49.911Z,97423.88
2022-11-28T06:35:16.914Z,97422.63
2022-11-28T06:37:43.765Z,97408.13
2022-11-28T06:40:11.129Z,97400.19
2022-11-28T06:42:38.159Z,97378.31
2022-11-28T06:45:06.125Z,97361.06
2022-11-28T06:47:33.065Z,97362.22
2022-11-28T06:49:59.837Z,97343.72
2022-11-28T06:52:26.823Z,97329.31
2022-11-28T06:54:53.597Z,97313.84
2022-11-28T06:57:20.389Z,97297.34
2022-11-28T06:59:50.561Z,97279.31
2022-11-28T07:02:17.429Z,97274.75
2022-11-28T07:04:44.567Z,97283.56
2022-11-28T07:07:16.107Z,97302.59
2022-11-28T07:09:44.171Z,97362.09
2022-11-28T07:12:11.525Z,97420.34
2022-11-28T07:14:38.472Z,97408.66
2022-11-28T07:17:05.538Z,97412.97
2022-11-28T07:19:32.436Z,97406.44
2022-11-28T07:21:59.303Z,97411.03
2022-11-28T07:24:26.172Z,97400.94
2022-11-28T07:26:53.227Z,97421.78
2022-11-28T07:29:20.029Z,97423.31
2022-11-28T07:31:46.866Z,97411.66
2022-11-28T07:34:13.736Z,97408.41
2022-11-28T07:36:40.748Z,97401.59
2022-11-28T07:39:08.951Z,97413.28
2022-11-28T07:41:36.119Z,97417.88
2022-11-28T07:44:04.140Z,97428.03
2022-11-28T07:46:33.061Z,97422.28
2022-11-28T07:49:00.408Z,97425.13
2022-11-28T07:51:30.538Z,97434.75
2022-11-28T07:53:57.911Z,97425.91
2022-11-28T07:56:50.130Z,97436.81
2022-11-28T07:59:17.177Z,97432.78
2022-11-28T08:01:44.281Z,97432.03
2022-11-28T08:04:11.173Z,97428.28
2022-11-28T08:06:40.978Z,97422.97
2022-11-28T08:09:08.374Z,97418.16
2022-11-28T08:11:35.615Z,97419.41
2022-11-28T08:14:02.638Z,97407.31
2022-11-28T08:16:30.393Z,97415.94
2022-11-28T08:18:59.918Z,97421.81
2022-11-28T08:21:32.943Z,97426.09
2022-11-28T08:24:02.134Z,97424.63
2022-11-28T08:26:31.019Z,97424.44
2022-11-28T08:29:02.636Z,97413.00
2022-11-28T08:31:35.320Z,97424.16
2022-11-28T08:34:05.491Z,97425.19
2022-11-28T08:36:32.950Z,97423.47
2022-11-28T08:39:24.028Z,97431.13
2022-11-28T08:41:49.835Z,97436.47
2022-11-28T08:44:16.716Z,97432.44
2022-11-28T08:46:43.833Z,97431.47
2022-11-28T08:49:10.812Z,97444.41
2022-11-28T08:51:37.984Z,97431.25
2022-11-28T08:54:04.927Z,97438.06
2022-11-28T08:56:32.112Z,97436.03
2022-11-28T08:58:59.916Z,97442.19
2022-11-28T09:01:27.509Z,97458.13
2022-11-28T09:03:56.041Z,97445.47
2022-11-28T09:06:24.152Z,97436.59
2022-11-28T09:08:53.663Z,97436.13
2022-11-28T09:11:22.041Z,97433.63
2022-11-28T09:13:49.200Z,97435.41
2022-11-28T09:16:16.176Z,97430.09
2022-11-28T09:18:43.484Z,97434.94
2022-11-28T09:21:13.641Z,97433.44
2022-11-28T09:23:42.507Z,97442.88
2022-11-28T09:26:11.216Z,97438.88
2022-11-28T09:28:38.328Z,97436.91
2022-11-28T09:31:06.693Z,97430.06
2022-11-28T09:33:34.252Z,97436.97
2022-11-28T09:36:05.849Z,97433.66
2022-11-28T09:38:32.763Z,97425.59
2022-11-28T09:41:01.319Z,97428.38
2022-11-28T09:43:34.774Z,97428.09
2022-11-28T09:46:06.117Z,97418.69
2022-11-28T09:48:49.483Z,97420.44
2022-11-28T09:51:28.386Z,97411.75
2022-11-28T09:54:04.243Z,97409.72
2022-11-28T09:56:31.240Z,97406.16
2022-11-28T09:59:03.346Z,97396.28
2022-11-28T10:01:42.114Z,97394.50
2022-11-28T10:04:42.880Z,97393.75
2022-11-28T10:07:33.782Z,97391.44
2022-11-28T10:10:12.530Z,97394.75
2022-11-28T10:13:00.952Z,97392.22
2022-11-28T10:15:44.831Z,97391.97
2022-11-28T10:18:26.869Z,97395.81
2022-11-28T10:20:59.487Z,97393.53
2022-11-28T10:23:38.721Z,97387.94
2022-11-28T10:26:16.800Z,97385.16
2022-11-28T10:28:48.761Z,97386.41
2022-11-28T10:31:29.813Z,97379.03
2022-11-28T10:34:10.061Z,97373.97
2022-11-28T10:36:52.167Z,97380.03
2022-11-28T10:39:19.016Z,97381.50
2022-11-28T10:42:14.444Z,97378.72
2022-11-28T10:44:50.605Z,97377.47
2022-11-28T10:47:23.209Z,97384.34
2022-11-28T10:50:32.068Z,97379.31
2022-11-28T10:53:37.755Z,97380.34
2022-11-28T10:56:31.618Z,97384.66
2022-11-28T10:59:32.589Z,97384.94
2022-11-28T11:02:01.104Z,97374.81
2022-11-28T11:04:28.396Z,97384.97
2022-11-28T11:07:17.861Z,97384.00
2022-11-28T11:09:47.020Z,97381.72
2022-11-28T11:12:25.746Z,97380.47
2022-11-28T11:14:52.903Z,97382.47
2022-11-28T11:17:37.922Z,97384.56
2022-11-28T11:20:22.871Z,97376.38
2022-11-28T11:23:02.443Z,97378.63
2022-11-28T11:25:32.210Z,97382.19
2022-11-28T11:28:03.596Z,97375.38
2022-11-28T11:30:42.919Z,97374.38
2022-11-28T11:33:17.821Z,97377.44
2022-11-28T11:35:48.403Z,97377.94
2022-11-28T11:38:16.895Z,97374.91
2022-11-28T11:40:44.491Z,97365.06
2022-11-28T11:43:25.775Z,97371.94
2022-11-28T11:46:06.431Z,97362.31
2022-11-28T11:48:41.416Z,97358.56
2022-11-28T11:51:28.106Z,97357.41
2022-11-28T11:54:17.599Z,97359.97
2022-11-28T11:56:51.210Z,97360.97
2022-11-28T11:59:31.647Z,97363.03
2022-11-28T12:02:08.968Z,97356.22
2022-11-28T12:04:47.265Z,97359.75
2022-11-28T12:07:48.675Z,97359.00
2022-11-28T12:10:19.298Z,97348.38
2022-11-28T12:12:46.168Z,97356.00
2022-11-28T12:15:27.384Z,97346.91
2022-11-28T12:18:15.401Z,97349.72
2022-11-28T12:20:55.035Z,97345.19
2022-11-28T12:23:46.321Z,97337.31
2022-11-28T12:26:34.515Z,97330.25
2022-11-28T12:29:13.357Z,97338.38
2022-11-28T12:31:43.156Z,97333.28
2022-11-28T12:34:28.421Z,97325.66
2022-11-28T12:38:02.751Z,97333.53
2022-11-28T12:40:38.222Z,97352.28
2022-11-28T12:43:36.263Z,97340.84
2022-11-28T12:46:12.957Z,97347.44
2022-11-28T12:48:53.391Z,97342.06
2022-11-28T12:51:36.535Z,97338.28
2022-11-28T12:54:25.912Z,97340.56
2022-11-28T12:56:55.630Z,97343.13
2022-11-28T12:59:26.068Z,97345.13
2022-11-28T13:02:21.190Z,97338.78
2022-11-28T13:05:16.252Z,97338.00
2022-11-28T13:08:11.623Z,97339.78
2022-11-28T13:11:10.760Z,97350.44
2022-11-28T13:13:56.428Z,97348.63
2022-11-28T13:16:35.246Z,97351.41
2022-11-28T13:19:31.292Z,97351.41
2022-11-28T13:22:11.454Z,97357.00
2022-11-28T13:24:42.119Z,97342.78
2022-11-28T13:27:24.194Z,97351.41
2022-11-28T13:30:19.897Z,97356.25
2022-11-28T13:33:07.372Z,97358.75
2022-11-28T13:35:35.189Z,97359.75
2022-11-28T13:38:47.093Z,97359.97
2022-11-28T13:41:35.814Z,97344.00
2022-11-28T13:44:20.929Z,97341.25
2022-11-28T13:46:48.326Z,97330.06
2022-11-28T13:49:27.142Z,97330.13
2022-11-28T13:52:25.771Z,97320.25
2022-11-28T13:54:54.638Z,97316.97
2022-11-28T13:57:39.849Z,97324.09
2022-11-28T14:00:22.916Z,97316.97
2022-11-28T14:03:00.106Z,97324.34
2022-11-28T14:05:35.189Z,97310.66
2022-11-28T14:08:04.712Z,97314.97
2022-11-28T14:10:48.684Z,97312.69
2022-11-28T14:13:44.141Z,97316.50
2022-11-28T14:16:20.445Z,97310.94
2022-11-28T14:19:12.771Z,97320.31
2022-11-28T14:22:09.769Z,97311.44
2022-11-28T14:24:52.082Z,97315.22
2022-11-28T14:27:33.981Z,97319.03
2022-11-28T14:30:02.266Z,97316.19
2022-11-28T14:32:42.331Z,97313.94
2022-11-28T14:35:37.918Z,97314.13
2022-11-28T14:38:30.618Z,97325.53
2022-11-28T14:41:03.373Z,97322.75
2022-11-28T14:43:31.723Z,97309.28
2022-11-28T14:46:23.423Z,97318.13
2022-11-28T14:48:59.711Z,97320.16
2022-11-28T14:51:45.686Z,97313.31
2022-11-28T14:54:42.602Z,97314.31
2022-11-28T14:57:25.063Z,97314.31
2022-11-28T14:59:53.758Z,97315.84
2022-11-28T15:02:33.992Z,97314.31
2022-11-28T15:05:30.126Z,97315.31
2022-11-28T15:08:15.997Z,97318.09
2022-11-28T15:11:29.179Z,97325.72
2022-11-28T15:14:04.838Z,97329.00
2022-11-28T15:16:35.300Z,97322.91
2022-11-28T15:19:14.049Z,97317.56
2022-11-28T15:21:47.652Z,97325.69
2022-11-28T15:24:24.671Z,97328.53
2022-11-28T15:26:57.535Z,97321.66
2022-11-28T15:29:28.087Z,97321.66
2022-11-28T15:31:57.129Z,97326.25
2022-11-28T15:34:26.342Z,97315.84
2022-11-28T15:36:55.213Z,97325.75
2022-11-28T15:39:30.485Z,97330.06
2022-11-28T15:42:00.656Z,97330.84
2022-11-28T15:44:28.766Z,97328.28
2022-11-28T15:46:56.859Z,97327.03
2022-11-28T15:49:26.092Z,97327.03
2022-11-28T15:51:55.499Z,97325.50
2022-11-28T15:54:44.207Z,97326.25
2022-11-28T15:57:24.096Z,97331.84
2022-11-28T15:59:51.195Z,97329.53
2022-11-28T16:02:18.132Z,97335.13
2022-11-28T16:04:45.860Z,97331.31
2022-11-28T16:07:16.334Z,97334.09
2022-11-28T16:10:07.897Z,97324.44
2022-11-28T16:12:34.867Z,97332.81
2022-11-28T16:15:03.385Z,97333.59
2022-11-28T16:17:34.723Z,97332.81
2022-11-28T16:20:03.702Z,97332.06
2022-11-28T16:22:36.604Z,97339.19
2022-11-28T16:25:21.548Z,97340.72
2022-11-28T16:27:53.148Z,97341.97
2022-11-28T16:30:23.323Z,97341.47
2022-11-28T16:32:52.003Z,97342.72
2022-11-28T16:35:34.457Z,97350.84
2022-11-28T16:38:20.375Z,97345.75
2022-11-28T16:40:47.655Z,97347.28
2022-11-28T16:43:25.006Z,97349.31
2022-11-28T16:46:03.392Z,97347.28
2022-11-28T16:48:34.368Z,97353.13
2022-11-28T16:51:14.899Z,97351.09
2022-11-28T16:53:44.162Z,97351.09
2022-11-28T16:56:29.627Z,97346.28
2022-11-28T16:59:15.147Z,97343.22
2022-11-28T17:01:45.002Z,97349.81
2022-11-28T17:04:26.877Z,97351.56
2022-11-28T17:06:56.979Z,97356.41
2022-11-28T17:09:24.183Z,97354.81
2022-11-28T17:11:57.288Z,97347.91
2022-11-28T17:14:24.418Z,97346.38
2022-11-28T17:16:51.431Z,97354.47
2022-11-28T17:19:18.466Z,97358.53
2022-11-28T17:21:49.260Z,97355.19
2022-11-28T17:24:22.079Z,97355.19
2022-11-28T17:26:50.611Z,97358.50
2022-11-28T17:29:17.529Z,97361.78
2022-11-28T17:31:47.548Z,97357.44
2022-11-28T17:34:19.506Z,97355.91
2022-11-28T17:36:47.991Z,97360.47
2022-11-28T17:39:16.100Z,97355.13
2022-11-28T17:41:43.738Z,97359.69
2022-11-28T17:44:18.341Z,97362.22
2022-11-28T17:46:45.953Z,97355.13
2022-11-28T17:49:13.267Z,97360.16
2022-11-28T17:51:40.519Z,97359.88
2022-11-28T17:54:08.474Z,97373.34
2022-11-28T17:56:35.454Z,97367.47
2022-11-28T17:59:02.454Z,97365.75
2022-11-28T18:01:31.259Z,97367.47
2022-11-28T18:03:59.212Z,97364.69
2022-11-28T18:06:26.418Z,97374.59
2022-11-28T18:08:53.748Z,97366.75
2022-11-28T18:11:24.420Z,97369.06
2022-11-28T18:13:52.479Z,97364.78
2022-11-28T18:16:24.703Z,97364.56
2022-11-28T18:18:53.381Z,97361.25
2022-11-28T18:21:20.757Z,97361.78
2022-11-28T18:23:51.181Z,97367.34
2022-11-28T18:26:21.453Z,97358.69
2022-11-28T18:28:48.676Z,97367.59
2022-11-28T18:31:24.244Z,97366.81
2022-11-28T18:33:56.161Z,97364.25
2022-11-28T18:36:28.641Z,97364.47
2022-11-28T18:38:59.066Z,97362.66
2022-11-28T18:41:27.526Z,97361.13
2022-11-28T18:43:59.863Z,97358.09
2022-11-28T18:46:29.369Z,97360.59
2022-11-28T18:48:57.692Z,97363.88
2022-11-28T18:51:27.155Z,97364.66
2022-11-28T18:53:56.459Z,97363.66
2022-11-28T18:56:24.091Z,97370.78
2022-11-28T18:58:53.767Z,97368.25
2022-11-28T19:01:30.619Z,97372.03
2022-11-28T19:03:59.844Z,97377.13
2022-11-28T19:06:29.025Z,97375.59
2022-11-28T19:08:59.585Z,97380.66
2022-11-28T19:11:28.827Z,97382.19
2022-11-28T19:13:57.871Z,97376.91
2022-11-28T19:16:27.889Z,97387.06
2022-11-28T19:18:55.805Z,97381.78
2022-11-28T19:21:26.054Z,97387.59
2022-11-28T19:23:56.026Z,97378.97
2022-11-28T19:26:26.445Z,97381.47
2022-11-28T19:28:54.514Z,97383.03
2022-11-28T19:31:28.261Z,97381.19
2022-11-28T19:34:07.841Z,97383.72
2022-11-28T19:36:40.708Z,97384.97
2022-11-28T19:39:12.992Z,97393.09
2022-11-28T19:41:40.444Z,97382.91
2022-11-28T19:44:11.012Z,97388.28
2022-11-28T19:46:40.085Z,97381.59
2022-11-28T19:49:17.960Z,97387.53
2022-11-28T19:51:47.968Z,97390.56
2022-11-28T19:54:20.256Z,97390.09
2022-11-28T19:56:49.442Z,97386.53
2022-11-28T19:59:17.821Z,97391.88
2022-11-28T20:01:50.719Z,97392.94
2022-11-28T20:04:18.681Z,97379.41
2022-11-28T20:06:46.697Z,97398.50
2022-11-28T20:09:14.353Z,97403.53
2022-11-28T20:11:44.278Z,97398.16
2022-11-28T20:14:14.683Z,97395.13
2022-11-28T20:16:42.360Z,97402.72
2022-11-28T20:19:13.027Z,97402.19
2022-11-28T20:21:41.725Z,97408.25
2022-11-28T20:24:10.222Z,97407.97
2022-11-28T20:26:41.534Z,97386.59
2022-11-28T20:29:12.535Z,97408.53
2022-11-28T20:31:46.715Z,97408.00
2022-11-28T20:34:17.959Z,97414.66
2022-11-28T20:36:45.937Z,97410.31
2022-11-28T20:39:13.845Z,97406.00
2022-11-28T20:41:41.448Z,97416.66
2022-11-28T20:44:09.424Z,97411.34
2022-11-28T20:46:36.548Z,97423.28
2022-11-28T20:49:05.755Z,97424.03
2022-11-28T20:51:34.597Z,97411.34
2022-11-28T20:54:02.776Z,97422.78
2022-11-28T20:56:31.903Z,97425.59
2022-11-28T20:59:00.911Z,97421.03
2022-11-28T21:01:36.572Z,97418.03
2022-11-28T21:04:06.932Z,97420.31
2022-11-28T21:06:36.500Z,97417.03
2022-11-28T21:09:04.832Z,97418.59
2022-11-28T21:11:55.761Z,97414.50
2022-11-28T21:14:19.419Z,97414.50
2022-11-28T21:16:47.126Z,97416.22
2022-11-28T21:19:14.126Z,97424.03
2022-11-28T21:21:43.268Z,97418.47
2022-11-28T21:24:14.112Z,97422.03
2022-11-28T21:26:46.637Z,97415.97
2022-11-28T21:29:18.465Z,97422.50
2022-11-28T21:31:46.606Z,97427.59
2022-11-28T21:34:15.678Z,97431.16
2022-11-28T21:36:43.009Z,97414.44
2022-11-28T21:39:12.735Z,97421.53
2022-11-28T21:41:39.887Z,97415.44
2022-11-28T21:44:07.734Z,97420.25
2022-11-28T21:46:34.712Z,97416.19
2022-11-28T21:49:02.025Z,97426.84
2022-11-28T21:51:29.048Z,97426.59
2022-11-28T21:53:57.661Z,97423.28
2022-11-28T21:56:25.557Z,97415.69
2022-11-28T21:58:53.524Z,97416.94
2022-11-28T22:01:21.308Z,97412.63
2022-11-28T22:03:49.441Z,97418.91
2022-11-28T22:06:20.123Z,97417.09
2022-11-28T22:08:52.800Z,97414.31
2022-11-28T22:11:24.198Z,97415.84
2022-11-28T22:13:53.267Z,97409.28
2022-11-28T22:16:23.590Z,97404.69
2022-11-28T22:18:51.800Z,97416.91
2022-11-28T22:21:50.537Z,97410.25
2022-11-28T22:24:08.261Z,97415.59
2022-11-28T22:26:35.262Z,97415.28
2022-11-28T22:29:04.288Z,97416.84
2022-11-28T22:31:32.822Z,97410.22
2022-11-28T22:34:00.131Z,97412.78
2022-11-28T22:36:27.311Z,97409.00
2022-11-28T22:38:56.188Z,97425.03
2022-11-28T22:41:28.891Z,97412.63
2022-11-28T22:44:00.499Z,97418.75
2022-11-28T22:46:28.647Z,97419.00
2022-11-28T22:48:55.857Z,97420.84
2022-11-28T22:51:25.709Z,97419.84
2022-11-28T22:53:59.127Z,97428.47
2022-11-28T22:56:28.939Z,97424.16
2022-11-28T22:58:57.905Z,97415.78
2022-11-28T23:01:28.581Z,97421.63
2022-11-28T23:03:56.312Z,97423.16
2022-11-28T23:06:26.255Z,97421.91
2022-11-28T23:08:58.112Z,97416.59
2022-11-28T23:11:30.993Z,97413.31
2022-11-28T23:13:59.499Z,97414.56
2022-11-28T23:16:28.935Z,97413.81
2022-11-28T23:19:00.151Z,97413.81
2022-11-28T23:21:31.142Z,97414.56
2022-11-28T23:23:58.848Z,97411.00
2022-11-28T23:26:29.057Z,97405.94
2022-11-28T23:28:59.522Z,97418.63
2022-11-28T23:31:33.551Z,97413.31
2022-11-28T23:34:01.416Z,97409.75
2022-11-28T23:36:30.083Z,97414.09
2022-11-28T23:39:00.688Z,97408.50
2022-11-28T23:41:29.744Z,97408.50
2022-11-28T23:43:57.366Z,97407.25
2022-11-28T23:46:25.203Z,97405.97
2022-11-28T23:48:52.211Z,97407.25
2022-11-28T23:51:21.660Z,97418.13
2022-11-28T23:53:49.950Z,97409.75
2022-11-28T23:56:25.502Z,97403.41
2022-11-28T23:58:53.647Z,97408.22
